^^
Station Historical Data
Daily Summary for May 16, 2017 Units:  Metric    English   Both
« Previous Day
Next Day »
Daily Weekly Monthly Yearly Custom
  High: Low: Average:
Temperature: 28.6 °C 11.3 °C 19.1 °C
Dew Point: 0.3 °C -3.6 °C -2.1 °C
Humidity: 36% 13% 25%
Wind Speed: 20.9km/h 0km/h 1.6km/h
Wind Gust: 24.1km/h - -
Wind- - NNW
Pressure: 1020.5 hPa 1016.1 hPa -
Precipitation: 0 mm    
Historical Graphs
 
 
Tabular Data for May 16, 2017
Time Temperature Dew Point Pressure Wind Wind Speed Wind Gust Humidity Rainfall Rate (Hourly) solar Conditions
00:08 16.1 °C -2.4 °C 1018.8 hPa Calm     28% 0 mm 0.0 W/m2
00:18 15.7 °C -2.3 °C 1018.8 hPa Calm     29% 0 mm 0.0 W/m2
00:23 15.5 °C -2 °C 1018.8 hPa Calm     30% 0 mm 0.0 W/m2
00:28 15.6 °C -1.9 °C 1018.8 hPa Calm     30% 0 mm 0.0 W/m2
00:34 15.7 °C -1.8 °C 1018.8 hPa Calm     30% 0 mm 0.0 W/m2
00:39 15.6 °C -1.9 °C 1018.8 hPa Calm     30% 0 mm 0.0 W/m2
00:49 15.5 °C -2 °C 1018.8 hPa Calm     30% 0 mm 0.0 W/m2
00:55 15.1 °C -2.4 °C 1018.8 hPa Calm     30% 0 mm 0.0 W/m2
01:00 15 °C -2.4 °C 1018.8 hPa Calm     30% 0 mm 0.0 W/m2
01:06 15.1 °C -2.4 °C 1018.8 hPa Calm     30% 0 mm 0.0 W/m2
01:16 15.1 °C -2.4 °C 1018.8 hPa Calm     30% 0 mm 0.0 W/m2
01:26 15 °C -2.4 °C 1018.8 hPa Calm     30% 0 mm 0.0 W/m2
01:32 14.9 °C -2.5 °C 1018.8 hPa Calm     30% 0 mm 0.0 W/m2
01:37 14.8 °C -2.6 °C 1018.8 hPa Calm     30% 0 mm 0.0 W/m2
01:47 14.7 °C -2.3 °C 1018.8 hPa Calm     31% 0 mm 0.0 W/m2
01:53 14.7 °C -2.3 °C 1018.8 hPa Calm     31% 0 mm 0.0 W/m2
01:59 14.8 °C -2.6 °C 1018.8 hPa Calm     30% 0 mm 0.0 W/m2
02:04 14.9 °C -2.5 °C 1018.8 hPa Calm   6.4 km/h 30% 0 mm 0.0 W/m2
02:09 14.9 °C -2.5 °C 1018.8 hPa Calm     30% 0 mm 0.0 W/m2
02:14 14.8 °C -2.6 °C 1018.8 hPa Calm     30% 0 mm 0.0 W/m2
02:19 14.7 °C -2.7 °C 1018.8 hPa Calm     30% 0 mm 0.0 W/m2
02:25 14.7 °C -2.7 °C 1018.8 hPa Calm     30% 0 mm 0.0 W/m2
02:30 14.6 °C -2.8 °C 1018.8 hPa Calm     30% 0 mm 0.0 W/m2
02:35 14.4 °C -3 °C 1018.8 hPa Calm     30% 0 mm 0.0 W/m2
02:40 14.2 °C -2.7 °C 1018.8 hPa Calm     31% 0 mm 0.0 W/m2
02:45 14.1 °C -2.8 °C 1018.8 hPa Calm     31% 0 mm 0.0 W/m2
02:51 14.1 °C -2.8 °C 1018.8 hPa Calm     31% 0 mm 0.0 W/m2
02:56 14.1 °C -2.8 °C 1018.8 hPa Calm     31% 0 mm 0.0 W/m2
03:01 14.1 °C -2.8 °C 1018.8 hPa Calm     31% 0 mm 0.0 W/m2
03:06 14 °C -2.9 °C 1018.8 hPa Calm     31% 0 mm 0.0 W/m2
03:12 13.9 °C -3 °C 1018.8 hPa Calm     31% 0 mm 0.0 W/m2
03:17 13.8 °C -3 °C 1018.8 hPa Calm     31% 0 mm 0.0 W/m2
03:22 13.9 °C -3 °C 1018.8 hPa Calm     31% 0 mm 0.0 W/m2
03:27 14.3 °C -2.6 °C 1018.8 hPa Calm     31% 0 mm 0.0 W/m2
03:32 14.6 °C -2.8 °C 1019.2 hPa Calm     30% 0 mm 0.0 W/m2
03:37 14.6 °C -2.8 °C 1018.8 hPa Calm     30% 0 mm 0.0 W/m2
03:42 14.2 °C -3.1 °C 1018.8 hPa Calm     30% 0 mm 0.0 W/m2
03:47 14.1 °C -2.8 °C 1018.8 hPa Calm     31% 0 mm 0.0 W/m2
03:53 13.9 °C -3 °C 1018.8 hPa Calm     31% 0 mm 0.0 W/m2
03:58 13.8 °C -3 °C 1018.8 hPa Calm     31% 0 mm 0.0 W/m2
04:03 13.7 °C -3.1 °C 1018.8 hPa Calm     31% 0 mm 0.0 W/m2
04:08 13.1 °C -3.2 °C 1018.8 hPa Calm     32% 0 mm 0.0 W/m2
04:13 12.8 °C -3.5 °C 1018.8 hPa Calm     32% 0 mm 0.0 W/m2
04:19 12.6 °C -3.3 °C 1018.8 hPa Calm     33% 0 mm 0.0 W/m2
04:24 12.4 °C -3 °C 1018.8 hPa Calm     34% 0 mm 0.0 W/m2
04:29 12.3 °C -3.1 °C 1018.8 hPa Calm     34% 0 mm 0.0 W/m2
04:35 12.2 °C -3.2 °C 1018.8 hPa Calm     34% 0 mm 0.0 W/m2
04:40 12 °C -3.4 °C 1018.8 hPa Calm     34% 0 mm 0.0 W/m2
04:45 11.9 °C -3.5 °C 1018.8 hPa North 1.4 km/h 6.4 km/h 34% 0 mm 0.0 W/m2
04:50 11.7 °C -3.3 °C 1018.8 hPa Calm   8 km/h 35% 0 mm 0.0 W/m2
04:55 11.5 °C -3.4 °C 1018.8 hPa Calm     35% 0 mm 0.0 W/m2
05:00 11.4 °C -3.5 °C 1018.8 hPa Calm     35% 0 mm 0.0 W/m2
05:05 11.4 °C -3.5 °C 1018.8 hPa Calm     35% 0 mm 0.0 W/m2
05:10 11.3 °C -3.6 °C 1018.8 hPa Calm     35% 0 mm 0.0 W/m2
05:16 11.3 °C -3.6 °C 1018.8 hPa Calm     35% 0 mm 0.0 W/m2
05:21 11.4 °C -3.5 °C 1018.8 hPa Calm     35% 0 mm 0.0 W/m2
05:26 11.5 °C -3.4 °C 1018.8 hPa Calm     35% 0 mm 0.0 W/m2
05:31 11.6 °C -3.4 °C 1018.8 hPa Calm     35% 0 mm 0.0 W/m2
05:36 11.8 °C -3.6 °C 1018.8 hPa Calm     34% 0 mm 0.0 W/m2
05:42 11.8 °C -3.2 °C 1018.8 hPa Calm     35% 0 mm 0.0 W/m2
05:47 11.9 °C -3.1 °C 1018.8 hPa Calm     35% 0 mm 0.0 W/m2
05:52 12.1 °C -2.9 °C 1018.8 hPa Calm     35% 0 mm 0.0 W/m2
05:57 12.3 °C -2.4 °C 1018.8 hPa Calm     36% 0 mm 0.0 W/m2
06:03 12.2 °C -3.2 °C 1018.8 hPa Calm     34% 0 mm 0.0 W/m2
06:08 12.3 °C -3.1 °C 1018.8 hPa Calm     34% 0 mm 0.0 W/m2
06:13 12.4 °C -3 °C 1018.8 hPa Calm     34% 0 mm 0.0 W/m2
06:24 12.7 °C -2.8 °C 1019.2 hPa Calm     34% 0 mm 0.0 W/m2
06:29 12.9 °C -3 °C 1019.2 hPa Calm     33% 0 mm 7.0 W/m2
06:34 13.2 °C -2.7 °C 1019.2 hPa Calm     33% 0 mm 9.0 W/m2
06:39 13.3 °C -2.6 °C 1019.5 hPa Calm     33% 0 mm 12.0 W/m2
06:45 13.4 °C -2.6 °C 1019.5 hPa Calm     33% 0 mm 14.0 W/m2
06:54 13.8 °C -2.6 °C 1019.5 hPa Calm     32% 0 mm 19.0 W/m2
07:00 13.7 °C -2.7 °C 1019.5 hPa Calm     32% 0 mm 21.0 W/m2
07:05 13.7 °C -2.7 °C 1019.9 hPa Calm   6.4 km/h 32% 0 mm 26.0 W/m2
07:10 14.7 °C -2.3 °C 1019.9 hPa Calm     31% 0 mm 53.0 W/m2
07:20 15.6 °C -2.4 °C 1019.9 hPa Calm   9.7 km/h 29% 0 mm 118.0 W/m2
07:28 15.9 °C -2.1 °C 1019.9 hPa Calm   9.7 km/h 29% 0 mm 137.0 W/m2
07:38 16.5 °C -1.6 °C 1020.2 hPa North 1.4 km/h 6.4 km/h 29% 0 mm 178.0 W/m2
07:47 17 °C -1.2 °C 1020.2 hPa Calm   12.9 km/h 29% 0 mm 214.0 W/m2
07:52 17.2 °C -1.5 °C 1020.2 hPa North 9.7 km/h 9.7 km/h 28% 0 mm 230.0 W/m2
08:01 17.7 °C -1 °C 1020.2 hPa North 7.9 km/h 11.3 km/h 28% 0 mm 262.0 W/m2
09:27 21.4 °C -0.6 °C 1020.5 hPa Calm     23% 0 mm 490.0 W/m2
09:32 21.7 °C -0.3 °C 1020.5 hPa Calm     23% 0 mm 504.0 W/m2
09:40 22.1 °C -0.6 °C 1020.5 hPa Calm   9.7 km/h 22% 0 mm 515.0 W/m2
09:47 22.3 °C -0.5 °C 1020.5 hPa North 1.4 km/h 19.3 km/h 22% 0 mm 527.0 W/m2
10:01 22.5 °C 0.3 °C 1020.5 hPa Calm   12.9 km/h 23% 0 mm 547.0 W/m2
10:08 22.9 °C 0.1 °C 1020.2 hPa North 13 km/h 17.7 km/h 22% 0 mm 568.0 W/m2
10:13 23.2 °C -0.3 °C 1020.2 hPa North 17.7 km/h 20.9 km/h 21% 0 mm 575.0 W/m2
10:19 23.4 °C -0.2 °C 1020.2 hPa North 17.7 km/h 19.3 km/h 21% 0 mm 580.0 W/m2
10:59 24.6 °C 0.1 °C 1019.5 hPa North 1.4 km/h 19.3 km/h 20% 0 mm 626.0 W/m2
11:08 24.9 °C -0.3 °C 1019.5 hPa North 6.4 km/h 24.1 km/h 19% 0 mm 635.0 W/m2
11:18 25.1 °C -0.1 °C 1019.5 hPa North 1.4 km/h 19.3 km/h 19% 0 mm 638.0 W/m2
11:28 25.3 °C -0.7 °C 1019.2 hPa North 20.9 km/h 20.9 km/h 18% 0 mm 642.0 W/m2
11:33 25.5 °C -0.6 °C 1019.2 hPa North 11.1 km/h 11.3 km/h 18% 0 mm 645.0 W/m2
11:38 25.6 °C -0.5 °C 1019.2 hPa North 11.1 km/h 19.3 km/h 18% 0 mm 645.0 W/m2
11:43 25.7 °C -0.4 °C 1018.8 hPa North 14.3 km/h 17.7 km/h 18% 0 mm 643.0 W/m2
11:49 25.8 °C -0.3 °C 1018.8 hPa North 3.2 km/h 20.9 km/h 18% 0 mm 643.0 W/m2
11:54 25.8 °C -0.3 °C 1018.8 hPa Calm   11.3 km/h 18% 0 mm 645.0 W/m2
12:10 26 °C -0.9 °C 1018.5 hPa NNW 6.4 km/h 19.3 km/h 17% 0 mm 640.0 W/m2
12:16 26.1 °C -0.9 °C 1018.2 hPa Calm   11.3 km/h 17% 0 mm 638.0 W/m2
12:33 26.3 °C -1.5 °C 1017.8 hPa NNW 13 km/h 14.5 km/h 16% 0 mm 629.0 W/m2
12:42 26.6 °C -1.3 °C 1017.8 hPa NNW 9.7 km/h 14.5 km/h 16% 0 mm 622.0 W/m2
12:51 26.7 °C -1.2 °C 1017.5 hPa NNW 3.2 km/h 9.7 km/h 16% 0 mm 610.0 W/m2
13:00 26.9 °C -1.9 °C 1017.5 hPa NNW 6.4 km/h 17.7 km/h 15% 0 mm 599.0 W/m2
13:05 27 °C -1.8 °C 1017.5 hPa NNW 14.3 km/h 17.7 km/h 15% 0 mm 592.0 W/m2
13:10 26.8 °C -2 °C 1017.2 hPa Calm   17.7 km/h 15% 0 mm 585.0 W/m2
13:15 27 °C -1.8 °C 1017.2 hPa NNW 6.4 km/h 6.4 km/h 15% 0 mm 578.0 W/m2
13:25 27.3 °C -1.6 °C 1016.8 hPa NNW 6.4 km/h 12.9 km/h 15% 0 mm 564.0 W/m2
13:35 27.5 °C -2.4 °C 1016.8 hPa NNW 7.9 km/h 20.9 km/h 14% 0 mm 547.0 W/m2
13:45 27.6 °C -2.3 °C 1016.8 hPa NNW 11.1 km/h 14.5 km/h 14% 0 mm 531.0 W/m2
13:56 27.8 °C -2.1 °C 1016.8 hPa Calm   12.9 km/h 14% 0 mm 510.0 W/m2
14:07 27.9 °C -2.1 °C 1016.5 hPa Calm   12.9 km/h 14% 0 mm 487.0 W/m2
14:16 27.8 °C -2.1 °C 1016.5 hPa NNW 7.9 km/h 11.3 km/h 14% 0 mm 464.0 W/m2
14:21 27.8 °C -2.1 °C 1016.5 hPa NNW 3.2 km/h 14.5 km/h 14% 0 mm 454.0 W/m2
14:31 28 °C -2 °C 1016.5 hPa Calm   6.4 km/h 14% 0 mm 429.0 W/m2
14:36 28 °C -2 °C 1016.5 hPa Calm   11.3 km/h 14% 0 mm 415.0 W/m2
14:41 28.1 °C -1.9 °C 1016.5 hPa Calm   9.7 km/h 14% 0 mm 401.0 W/m2
14:47 28.2 °C -1.8 °C 1016.5 hPa Calm     14% 0 mm 387.0 W/m2
14:52 28.2 °C -1.8 °C 1016.5 hPa Calm     14% 0 mm 374.0 W/m2
15:02 28.3 °C -1.8 °C 1016.5 hPa Calm     14% 0 mm 346.0 W/m2
15:14 28.3 °C -1.8 °C 1016.5 hPa Calm     14% 0 mm 315.0 W/m2
15:29 28.6 °C -2.5 °C 1016.5 hPa NNW 7.9 km/h 9.7 km/h 13% 0 mm 272.0 W/m2
15:39 28.5 °C -1.6 °C 1016.5 hPa Calm     14% 0 mm 241.0 W/m2
15:48 28.3 °C -1.8 °C 1016.5 hPa Calm     14% 0 mm 204.0 W/m2
15:53 28.4 °C -1.7 °C 1016.5 hPa Calm     14% 0 mm 185.0 W/m2
15:59 28.4 °C -1.7 °C 1016.5 hPa Calm     14% 0 mm 160.0 W/m2
16:09 28.2 °C -1.8 °C 1016.1 hPa Calm     14% 0 mm 127.0 W/m2
16:15 28.3 °C -1.8 °C 1016.1 hPa Calm     14% 0 mm 104.0 W/m2
16:33 28 °C -1 °C 1016.5 hPa Calm     15% 0 mm 58.0 W/m2
16:42 27.6 °C -1.4 °C 1016.5 hPa Calm     15% 0 mm 32.0 W/m2
16:51 27.1 °C -0.9 °C 1016.5 hPa Calm     16% 0 mm 14.0 W/m2
16:59 26.5 °C -1.4 °C 1016.5 hPa Calm     16% 0 mm 7.0 W/m2
17:05 26.2 °C -0.8 °C 1016.5 hPa Calm     17% 0 mm 5.0 W/m2
17:10 25.8 °C -1.1 °C 1016.5 hPa Calm     17% 0 mm 0.0 W/m2
17:16 25.4 °C -1.4 °C 1016.5 hPa Calm     17% 0 mm 0.0 W/m2
17:21 24.9 °C -1.8 °C 1016.5 hPa Calm     17% 0 mm 0.0 W/m2
17:29 24.4 °C -1.5 °C 1016.5 hPa Calm     18% 0 mm 0.0 W/m2
17:41 23.6 °C -2.1 °C 1016.8 hPa Calm     18% 0 mm 0.0 W/m2
18:22 21.1 °C -2.1 °C 1016.8 hPa Calm     21% 0 mm 0.0 W/m2
18:38 20.5 °C -2 °C 1017.2 hPa Calm     22% 0 mm 0.0 W/m2
18:54 20.3 °C -1.5 °C 1017.2 hPa Calm     23% 0 mm 0.0 W/m2
19:11 20.1 °C -1.7 °C 1017.2 hPa Calm     23% 0 mm 0.0 W/m2
19:19 19.8 °C -1.9 °C 1017.5 hPa Calm     23% 0 mm 0.0 W/m2
19:36 20.3 °C -1.5 °C 1017.5 hPa Calm     23% 0 mm 0.0 W/m2
19:51 19.9 °C -1.9 °C 1017.5 hPa Calm     23% 0 mm 0.0 W/m2
20:13 20.4 °C -1.4 °C 1017.8 hPa Calm     23% 0 mm 0.0 W/m2
20:22 20.2 °C -1.6 °C 1017.8 hPa Calm     23% 0 mm 0.0 W/m2
20:38 19.3 °C -1.8 °C 1017.8 hPa Calm     24% 0 mm 0.0 W/m2
21:08 19.5 °C -1.6 °C 1017.8 hPa Calm     24% 0 mm 0.0 W/m2
21:24 19 °C -2 °C 1017.8 hPa Calm     24% 0 mm 0.0 W/m2
21:34 18.7 °C -1.7 °C 1017.8 hPa Calm     25% 0 mm 0.0 W/m2
Canyon Roadhouse, Fishriver Canyon, Namibia
Compliments of Weather Underground - 2.5 mb